sensor_id;sensor_type;location;lat;lon;timestamp;pressure;altitude;pressure_sealevel;temperature;humidity
20622;BME280;10470;42.670;23.354;2022-11-24T00:01:25;93773.38;;;7.82;100.00
20622;BME280;10470;42.670;23.354;2022-11-24T00:06:21;93775.50;;;7.69;100.00
20622;BME280;10470;42.670;23.354;2022-11-24T00:08:47;93759.69;;;7.58;100.00
20622;BME280;10470;42.670;23.354;2022-11-24T00:11:15;93776.53;;;7.62;100.00
20622;BME280;10470;42.670;23.354;2022-11-24T00:13:41;93777.91;;;7.48;100.00
20622;BME280;10470;42.670;23.354;2022-11-24T00:18:34;93775.03;;;7.79;100.00
20622;BME280;10470;42.670;23.354;2022-11-24T00:20:59;93772.47;;;7.66;100.00
20622;BME280;10470;42.670;23.354;2022-11-24T00:23:25;93769.75;;;7.57;100.00
20622;BME280;10470;42.670;23.354;2022-11-24T00:25:51;93778.06;;;7.44;100.00
20622;BME280;10470;42.670;23.354;2022-11-24T00:28:16;93776.41;;;7.65;100.00
20622;BME280;10470;42.670;23.354;2022-11-24T00:30:41;93781.66;;;7.69;100.00
20622;BME280;10470;42.670;23.354;2022-11-24T00:33:07;93757.41;;;7.75;100.00
20622;BME280;10470;42.670;23.354;2022-11-24T00:35:32;93780.16;;;7.86;100.00
20622;BME280;10470;42.670;23.354;2022-11-24T00:37:58;93788.13;;;7.81;100.00
20622;BME280;10470;42.670;23.354;2022-11-24T00:40:23;93776.81;;;7.82;100.00
20622;BME280;10470;42.670;23.354;2022-11-24T00:42:48;93781.34;;;7.95;100.00
20622;BME280;10470;42.670;23.354;2022-11-24T00:45:14;93773.31;;;8.09;100.00
20622;BME280;10470;42.670;23.354;2022-11-24T00:47:39;93780.78;;;7.63;100.00
20622;BME280;10470;42.670;23.354;2022-11-24T00:50:05;93787.38;;;7.90;100.00
20622;BME280;10470;42.670;23.354;2022-11-24T00:52:31;93795.63;;;8.04;100.00
20622;BME280;10470;42.670;23.354;2022-11-24T00:54:56;93806.31;;;7.99;100.00
20622;BME280;10470;42.670;23.354;2022-11-24T00:57:22;93798.34;;;8.04;100.00
20622;BME280;10470;42.670;23.354;2022-11-24T00:59:47;93795.47;;;8.17;100.00
20622;BME280;10470;42.670;23.354;2022-11-24T01:02:12;93804.66;;;8.20;100.00
20622;BME280;10470;42.670;23.354;2022-11-24T01:04:38;93787.19;;;8.02;100.00
20622;BME280;10470;42.670;23.354;2022-11-24T01:07:03;93799.41;;;8.07;100.00
20622;BME280;10470;42.670;23.354;2022-11-24T01:09:29;93793.66;;;8.05;100.00
20622;BME280;10470;42.670;23.354;2022-11-24T01:11:54;93794.00;;;7.79;100.00
20622;BME280;10470;42.670;23.354;2022-11-24T01:14:26;93794.63;;;7.83;100.00
20622;BME280;10470;42.670;23.354;2022-11-24T01:16:52;93788.88;;;7.81;100.00
20622;BME280;10470;42.670;23.354;2022-11-24T01:19:17;93789.16;;;7.93;100.00
20622;BME280;10470;42.670;23.354;2022-11-24T01:21:43;93794.59;;;7.93;100.00
20622;BME280;10470;42.670;23.354;2022-11-24T01:24:09;93789.34;;;7.89;100.00
20622;BME280;10470;42.670;23.354;2022-11-24T01:26:35;93791.72;;;7.96;100.00
20622;BME280;10470;42.670;23.354;2022-11-24T01:29:00;93795.22;;;7.60;100.00
20622;BME280;10470;42.670;23.354;2022-11-24T01:31:26;93791.16;;;7.74;100.00
20622;BME280;10470;42.670;23.354;2022-11-24T01:33:52;93790.84;;;7.72;100.00
20622;BME280;10470;42.670;23.354;2022-11-24T01:36:18;93790.38;;;7.82;100.00
20622;BME280;10470;42.670;23.354;2022-11-24T01:38:44;93802.28;;;7.94;100.00
20622;BME280;10470;42.670;23.354;2022-11-24T01:41:15;93801.84;;;7.86;100.00
20622;BME280;10470;42.670;23.354;2022-11-24T01:43:42;93810.69;;;7.96;100.00
20622;BME280;10470;42.670;23.354;2022-11-24T01:47:00;93800.59;;;8.06;100.00
20622;BME280;10470;42.670;23.354;2022-11-24T01:49:17;93809.81;;;7.90;100.00
20622;BME280;10470;42.670;23.354;2022-11-24T01:51:53;93801.09;;;7.86;100.00
20622;BME280;10470;42.670;23.354;2022-11-24T01:54:22;93793.06;;;8.01;100.00
20622;BME280;10470;42.670;23.354;2022-11-24T01:56:50;93791.88;;;8.02;100.00
20622;BME280;10470;42.670;23.354;2022-11-24T01:59:19;93786.75;;;7.95;100.00
20622;BME280;10470;42.670;23.354;2022-11-24T02:01:47;93797.00;;;7.91;100.00
20622;BME280;10470;42.670;23.354;2022-11-24T02:04:17;93792.66;;;7.84;100.00
20622;BME280;10470;42.670;23.354;2022-11-24T02:06:44;93796.84;;;7.85;100.00
20622;BME280;10470;42.670;23.354;2022-11-24T02:09:18;93793.41;;;7.84;100.00
20622;BME280;10470;42.670;23.354;2022-11-24T02:11:45;93782.41;;;7.79;100.00
20622;BME280;10470;42.670;23.354;2022-11-24T02:14:13;93789.59;;;7.91;100.00
20622;BME280;10470;42.670;23.354;2022-11-24T02:16:41;93784.22;;;7.82;100.00
20622;BME280;10470;42.670;23.354;2022-11-24T02:22:33;93797.00;;;8.00;100.00
20622;BME280;10470;42.670;23.354;2022-11-24T02:25:20;93803.34;;;7.87;100.00
20622;BME280;10470;42.670;23.354;2022-11-24T02:27:48;93801.94;;;8.10;100.00
20622;BME280;10470;42.670;23.354;2022-11-24T02:30:13;93805.28;;;7.96;100.00
20622;BME280;10470;42.670;23.354;2022-11-24T02:32:40;93800.63;;;7.97;100.00
20622;BME280;10470;42.670;23.354;2022-11-24T02:35:08;93799.09;;;7.96;100.00
20622;BME280;10470;42.670;23.354;2022-11-24T02:37:33;93800.03;;;7.83;100.00
20622;BME280;10470;42.670;23.354;2022-11-24T02:39:59;93797.75;;;7.73;100.00
20622;BME280;10470;42.670;23.354;2022-11-24T02:42:25;93809.50;;;7.97;100.00
20622;BME280;10470;42.670;23.354;2022-11-24T02:44:55;93809.22;;;7.86;100.00
20622;BME280;10470;42.670;23.354;2022-11-24T02:47:23;93813.28;;;7.72;100.00
20622;BME280;10470;42.670;23.354;2022-11-24T02:49:48;93808.47;;;7.76;100.00
20622;BME280;10470;42.670;23.354;2022-11-24T02:52:13;93807.88;;;7.81;100.00
20622;BME280;10470;42.670;23.354;2022-11-24T02:54:40;93784.09;;;7.39;100.00
20622;BME280;10470;42.670;23.354;2022-11-24T02:57:05;93803.34;;;7.60;100.00
20622;BME280;10470;42.670;23.354;2022-11-24T02:59:30;93801.53;;;7.75;100.00
20622;BME280;10470;42.670;23.354;2022-11-24T03:01:56;93796.28;;;7.72;100.00
20622;BME280;10470;42.670;23.354;2022-11-24T03:04:22;93801.84;;;7.77;100.00
20622;BME280;10470;42.670;23.354;2022-11-24T03:06:47;93794.63;;;7.83;100.00
20622;BME280;10470;42.670;23.354;2022-11-24T03:09:13;93809.22;;;7.86;100.00
20622;BME280;10470;42.670;23.354;2022-11-24T03:11:38;93810.56;;;7.81;100.00
20622;BME280;10470;42.670;23.354;2022-11-24T03:14:04;93807.56;;;7.61;100.00
20622;BME280;10470;42.670;23.354;2022-11-24T03:16:30;93816.00;;;7.54;100.00
20622;BME280;10470;42.670;23.354;2022-11-24T03:18:55;93802.00;;;7.46;100.00
20622;BME280;10470;42.670;23.354;2022-11-24T03:21:20;93812.09;;;7.73;100.00
20622;BME280;10470;42.670;23.354;2022-11-24T03:23:46;93812.38;;;7.66;100.00
20622;BME280;10470;42.670;23.354;2022-11-24T03:26:14;93817.66;;;7.70;100.00
20622;BME280;10470;42.670;23.354;2022-11-24T03:28:39;93819.75;;;7.75;100.00
20622;BME280;10470;42.670;23.354;2022-11-24T03:31:06;93814.19;;;7.60;100.00
20622;BME280;10470;42.670;23.354;2022-11-24T03:33:32;93823.69;;;7.55;100.00
20622;BME280;10470;42.670;23.354;2022-11-24T03:35:58;93830.16;;;7.67;100.00
20622;BME280;10470;42.670;23.354;2022-11-24T03:38:23;93838.00;;;7.74;100.00
20622;BME280;10470;42.670;23.354;2022-11-24T03:40:49;93839.34;;;7.60;100.00
20622;BME280;10470;42.670;23.354;2022-11-24T03:43:15;93842.66;;;7.64;100.00
20622;BME280;10470;42.670;23.354;2022-11-24T03:45:44;93836.78;;;7.66;100.00
20622;BME280;10470;42.670;23.354;2022-11-24T03:48:09;93827.75;;;7.51;100.00
20622;BME280;10470;42.670;23.354;2022-11-24T03:50:35;93853.19;;;7.53;100.00
20622;BME280;10470;42.670;23.354;2022-11-24T03:53:00;93855.13;;;7.43;100.00
20622;BME280;10470;42.670;23.354;2022-11-24T03:55:26;93849.72;;;7.43;100.00
20622;BME280;10470;42.670;23.354;2022-11-24T03:57:51;93857.09;;;7.52;100.00
20622;BME280;10470;42.670;23.354;2022-11-24T04:00:17;93857.28;;;7.58;100.00
20622;BME280;10470;42.670;23.354;2022-11-24T04:02:43;93863.13;;;7.75;100.00
20622;BME280;10470;42.670;23.354;2022-11-24T04:05:08;93866.00;;;7.80;100.00
20622;BME280;10470;42.670;23.354;2022-11-24T04:07:34;93861.94;;;7.85;100.00
20622;BME280;10470;42.670;23.354;2022-11-24T04:10:00;93877.75;;;7.96;100.00
20622;BME280;10470;42.670;23.354;2022-11-24T04:12:25;93872.19;;;7.90;100.00
20622;BME280;10470;42.670;23.354;2022-11-24T04:15:14;93875.78;;;7.78;100.00
20622;BME280;10470;42.670;23.354;2022-11-24T04:17:40;93868.13;;;7.76;100.00
20622;BME280;10470;42.670;23.354;2022-11-24T04:20:06;93870.53;;;7.74;100.00
20622;BME280;10470;42.670;23.354;2022-11-24T04:22:32;93865.09;;;7.74;100.00
20622;BME280;10470;42.670;23.354;2022-11-24T04:24:57;93879.88;;;7.82;100.00
20622;BME280;10470;42.670;23.354;2022-11-24T04:27:23;93878.03;;;7.70;100.00
20622;BME280;10470;42.670;23.354;2022-11-24T04:29:48;93885.88;;;7.59;100.00
20622;BME280;10470;42.670;23.354;2022-11-24T04:32:15;93887.38;;;7.51;100.00
20622;BME280;10470;42.670;23.354;2022-11-24T04:34:41;93895.81;;;7.53;100.00
20622;BME280;10470;42.670;23.354;2022-11-24T04:37:26;93870.94;;;7.36;100.00
20622;BME280;10470;42.670;23.354;2022-11-24T04:40:13;93868.22;;;7.27;100.00
20622;BME280;10470;42.670;23.354;2022-11-24T04:42:38;93889.47;;;7.37;100.00
20622;BME280;10470;42.670;23.354;2022-11-24T04:45:04;93892.91;;;7.38;100.00
20622;BME280;10470;42.670;23.354;2022-11-24T04:47:31;93887.34;;;7.41;100.00
20622;BME280;10470;42.670;23.354;2022-11-24T04:49:56;93887.06;;;7.49;100.00
20622;BME280;10470;42.670;23.354;2022-11-24T04:52:23;93895.50;;;7.51;100.00
20622;BME280;10470;42.670;23.354;2022-11-24T04:54:49;93894.75;;;7.59;100.00
20622;BME280;10470;42.670;23.354;2022-11-24T04:57:16;93892.06;;;7.69;100.00
20622;BME280;10470;42.670;23.354;2022-11-24T04:59:42;93903.22;;;7.80;100.00
20622;BME280;10470;42.670;23.354;2022-11-24T05:02:09;93895.69;;;7.65;100.00
20622;BME280;10470;42.670;23.354;2022-11-24T05:04:34;93894.31;;;7.70;100.00
20622;BME280;10470;42.670;23.354;2022-11-24T05:07:00;93904.56;;;7.75;100.00
20622;BME280;10470;42.670;23.354;2022-11-24T05:09:25;93903.06;;;7.74;100.00
20622;BME280;10470;42.670;23.354;2022-11-24T05:11:51;93900.31;;;7.65;100.00
20622;BME280;10470;42.670;23.354;2022-11-24T05:14:16;93905.47;;;7.72;100.00
20622;BME280;10470;42.670;23.354;2022-11-24T05:16:42;93913.91;;;7.74;100.00
20622;BME280;10470;42.670;23.354;2022-11-24T05:19:07;93907.44;;;7.72;100.00
20622;BME280;10470;42.670;23.354;2022-11-24T05:21:33;93918.13;;;7.75;100.00
20622;BME280;10470;42.670;23.354;2022-11-24T05:23:58;93900.78;;;7.73;100.00
20622;BME280;10470;42.670;23.354;2022-11-24T05:26:25;93908.63;;;7.80;100.00
20622;BME280;10470;42.670;23.354;2022-11-24T05:28:51;93910.28;;;7.96;100.00
20622;BME280;10470;42.670;23.354;2022-11-24T05:31:16;93919.34;;;7.93;100.00
20622;BME280;10470;42.670;23.354;2022-11-24T05:33:41;93917.06;;;7.91;100.00
20622;BME280;10470;42.670;23.354;2022-11-24T05:36:07;93917.53;;;7.99;100.00
20622;BME280;10470;42.670;23.354;2022-11-24T05:38:53;93920.25;;;7.99;100.00
20622;BME280;10470;42.670;23.354;2022-11-24T05:41:19;93922.66;;;8.06;100.00
20622;BME280;10470;42.670;23.354;2022-11-24T05:43:44;93927.66;;;8.07;100.00
20622;BME280;10470;42.670;23.354;2022-11-24T05:46:10;93928.38;;;8.08;100.00
20622;BME280;10470;42.670;23.354;2022-11-24T05:48:35;93941.97;;;8.08;100.00
20622;BME280;10470;42.670;23.354;2022-11-24T05:51:00;93929.88;;;7.91;100.00
20622;BME280;10470;42.670;23.354;2022-11-24T05:53:26;93940.47;;;8.07;100.00
20622;BME280;10470;42.670;23.354;2022-11-24T05:55:51;93937.91;;;8.13;100.00
20622;BME280;10470;42.670;23.354;2022-11-24T05:58:17;93935.31;;;8.18;100.00
20622;BME280;10470;42.670;23.354;2022-11-24T06:00:42;93939.56;;;8.10;100.00
20622;BME280;10470;42.670;23.354;2022-11-24T06:03:09;93941.81;;;8.21;100.00
20622;BME280;10470;42.670;23.354;2022-11-24T06:05:35;93941.66;;;8.24;100.00
20622;BME280;10470;42.670;23.354;2022-11-24T06:08:01;93953.88;;;8.10;100.00
20622;BME280;10470;42.670;23.354;2022-11-24T06:10:26;93947.22;;;8.02;100.00
20622;BME280;10470;42.670;23.354;2022-11-24T06:12:53;93951.44;;;7.94;100.00
20622;BME280;10470;42.670;23.354;2022-11-24T06:15:19;93957.78;;;8.00;100.00
20622;BME280;10470;42.670;23.354;2022-11-24T06:17:52;93946.47;;;8.11;100.00
20622;BME280;10470;42.670;23.354;2022-11-24T06:20:18;93946.63;;;8.17;100.00
20622;BME280;10470;42.670;23.354;2022-11-24T06:22:44;93957.03;;;8.27;100.00
20622;BME280;10470;42.670;23.354;2022-11-24T06:25:09;93954.75;;;8.35;100.00
20622;BME280;10470;42.670;23.354;2022-11-24T06:27:34;93961.88;;;8.51;100.00
20622;BME280;10470;42.670;23.354;2022-11-24T06:30:00;93966.09;;;8.43;100.00
20622;BME280;10470;42.670;23.354;2022-11-24T06:32:25;93968.50;;;8.50;100.00
20622;BME280;10470;42.670;23.354;2022-11-24T06:34:51;93947.69;;;8.28;100.00
20622;BME280;10470;42.670;23.354;2022-11-24T06:37:17;93964.00;;;8.56;100.00
20622;BME280;10470;42.670;23.354;2022-11-24T06:39:42;93978.16;;;8.60;100.00
20622;BME280;10470;42.670;23.354;2022-11-24T06:42:08;93978.31;;;8.57;100.00
20622;BME280;10470;42.670;23.354;2022-11-24T06:44:33;93989.31;;;8.62;100.00
20622;BME280;10470;42.670;23.354;2022-11-24T06:46:58;94000.31;;;8.68;100.00
20622;BME280;10470;42.670;23.354;2022-11-24T06:49:24;93946.16;;;8.27;100.00
20622;BME280;10470;42.670;23.354;2022-11-24T06:51:49;94003.47;;;8.39;100.00
20622;BME280;10470;42.670;23.354;2022-11-24T06:54:16;93994.56;;;8.29;100.00
20622;BME280;10470;42.670;23.354;2022-11-24T06:56:42;94017.34;;;8.31;100.00
20622;BME280;10470;42.670;23.354;2022-11-24T06:59:15;94024.94;;;8.46;100.00
20622;BME280;10470;42.670;23.354;2022-11-24T07:01:41;94020.38;;;8.34;100.00
20622;BME280;10470;42.670;23.354;2022-11-24T07:04:07;94028.81;;;8.36;100.00
20622;BME280;10470;42.670;23.354;2022-11-24T07:06:32;94028.34;;;8.37;100.00
20622;BME280;10470;42.670;23.354;2022-11-24T07:08:57;94032.56;;;8.20;100.00
20622;BME280;10470;42.670;23.354;2022-11-24T07:11:23;94048.84;;;8.29;100.00
20622;BME280;10470;42.670;23.354;2022-11-24T07:13:49;94041.47;;;8.20;100.00
20622;BME280;10470;42.670;23.354;2022-11-24T07:16:19;94045.22;;;8.23;100.00
20622;BME280;10470;42.670;23.354;2022-11-24T07:18:46;94048.56;;;8.36;100.00
20622;BME280;10470;42.670;23.354;2022-11-24T07:21:12;94056.88;;;8.42;100.00
20622;BME280;10470;42.670;23.354;2022-11-24T07:23:38;94056.44;;;8.43;100.00
20622;BME280;10470;42.670;23.354;2022-11-24T07:26:05;94047.78;;;8.17;100.00
20622;BME280;10470;42.670;23.354;2022-11-24T07:28:31;94050.50;;;8.17;100.00
20622;BME280;10470;42.670;23.354;2022-11-24T07:30:57;94068.72;;;8.07;100.00
20622;BME280;10470;42.670;23.354;2022-11-24T07:33:23;94072.34;;;8.14;100.00
20622;BME280;10470;42.670;23.354;2022-11-24T07:35:52;94073.03;;;7.86;100.00
20622;BME280;10470;42.670;23.354;2022-11-24T07:38:17;94068.06;;;7.94;100.00
20622;BME280;10470;42.670;23.354;2022-11-24T07:40:43;94074.44;;;8.09;100.00
20622;BME280;10470;42.670;23.354;2022-11-24T07:43:08;94085.41;;;7.97;100.00
20622;BME280;10470;42.670;23.354;2022-11-24T07:45:34;94074.25;;;8.04;100.00
20622;BME280;10470;42.670;23.354;2022-11-24T07:47:59;94082.38;;;7.95;100.00
20622;BME280;10470;42.670;23.354;2022-11-24T07:50:25;94085.22;;;7.82;100.00
20622;BME280;10470;42.670;23.354;2022-11-24T07:52:50;94087.06;;;7.94;100.00
20622;BME280;10470;42.670;23.354;2022-11-24T07:55:16;94092.75;;;7.87;100.00
20622;BME280;10470;42.670;23.354;2022-11-24T07:57:41;94097.75;;;7.57;100.00
20622;BME280;10470;42.670;23.354;2022-11-24T08:00:07;94100.41;;;7.48;100.00
20622;BME280;10470;42.670;23.354;2022-11-24T08:02:33;94099.00;;;7.34;100.00
20622;BME280;10470;42.670;23.354;2022-11-24T08:04:58;94108.97;;;7.47;100.00
20622;BME280;10470;42.670;23.354;2022-11-24T08:07:24;94111.25;;;7.48;100.00
20622;BME280;10470;42.670;23.354;2022-11-24T08:09:49;94116.44;;;7.33;100.00
20622;BME280;10470;42.670;23.354;2022-11-24T08:12:17;94090.44;;;7.14;100.00
20622;BME280;10470;42.670;23.354;2022-11-24T08:14:46;94123.09;;;7.41;100.00
20622;BME280;10470;42.670;23.354;2022-11-24T08:17:12;94126.44;;;7.46;100.00
20622;BME280;10470;42.670;23.354;2022-11-24T08:19:37;94127.03;;;7.40;100.00
20622;BME280;10470;42.670;23.354;2022-11-24T08:22:03;94125.97;;;7.38;100.00
20622;BME280;10470;42.670;23.354;2022-11-24T08:24:28;94126.28;;;7.18;100.00
20622;BME280;10470;42.670;23.354;2022-11-24T08:26:55;94132.91;;;7.17;100.00
20622;BME280;10470;42.670;23.354;2022-11-24T08:29:21;94125.84;;;7.19;100.00
20622;BME280;10470;42.670;23.354;2022-11-24T08:31:46;94146.38;;;7.30;100.00
20622;BME280;10470;42.670;23.354;2022-11-24T08:34:11;94144.16;;;7.15;100.00
20622;BME280;10470;42.670;23.354;2022-11-24T08:36:37;94150.59;;;7.09;100.00
20622;BME280;10470;42.670;23.354;2022-11-24T08:39:02;94157.19;;;7.08;100.00
20622;BME280;10470;42.670;23.354;2022-11-24T08:41:28;94153.41;;;7.05;100.00
20622;BME280;10470;42.670;23.354;2022-11-24T08:43:54;94154.44;;;7.20;100.00
20622;BME280;10470;42.670;23.354;2022-11-24T08:46:20;94150.66;;;6.96;100.00
20622;BME280;10470;42.670;23.354;2022-11-24T08:48:51;94168.81;;;7.08;100.00
20622;BME280;10470;42.670;23.354;2022-11-24T08:51:22;94169.38;;;7.25;100.00
20622;BME280;10470;42.670;23.354;2022-11-24T08:53:47;94176.16;;;7.08;100.00
20622;BME280;10470;42.670;23.354;2022-11-24T08:56:13;94163.44;;;6.95;100.00
20622;BME280;10470;42.670;23.354;2022-11-24T08:58:39;94157.19;;;6.86;100.00
20622;BME280;10470;42.670;23.354;2022-11-24T09:01:10;94186.19;;;6.98;100.00
20622;BME280;10470;42.670;23.354;2022-11-24T09:03:36;94186.59;;;6.96;100.00
20622;BME280;10470;42.670;23.354;2022-11-24T09:06:04;94188.75;;;7.02;100.00
20622;BME280;10470;42.670;23.354;2022-11-24T09:08:30;94196.31;;;7.07;100.00
20622;BME280;10470;42.670;23.354;2022-11-24T09:11:04;94193.47;;;6.88;100.00
20622;BME280;10470;42.670;23.354;2022-11-24T09:13:31;94100.81;;;6.37;100.00
20622;BME280;10470;42.670;23.354;2022-11-24T09:16:13;94192.13;;;7.28;100.00
20622;BME280;10470;42.670;23.354;2022-11-24T09:18:39;94195.13;;;7.08;100.00
20622;BME280;10470;42.670;23.354;2022-11-24T09:21:10;94201.09;;;7.03;100.00
20622;BME280;10470;42.670;23.354;2022-11-24T09:23:36;94191.47;;;7.02;100.00
20622;BME280;10470;42.670;23.354;2022-11-24T09:26:29;94201.09;;;7.03;100.00
20622;BME280;10470;42.670;23.354;2022-11-24T09:28:56;94200.31;;;7.15;100.00
20622;BME280;10470;42.670;23.354;2022-11-24T09:31:26;94200.31;;;7.15;100.00
20622;BME280;10470;42.670;23.354;2022-11-24T09:33:52;94205.84;;;7.33;100.00
20622;BME280;10470;42.670;23.354;2022-11-24T09:36:19;94201.88;;;7.25;100.00
20622;BME280;10470;42.670;23.354;2022-11-24T09:38:45;94201.84;;;7.38;100.00
20622;BME280;10470;42.670;23.354;2022-11-24T09:48:59;94216.22;;;7.13;100.00
20622;BME280;10470;42.670;23.354;2022-11-24T09:51:27;94222.97;;;7.08;100.00
20622;BME280;10470;42.670;23.354;2022-11-24T09:54:06;94211.59;;;7.35;100.00
20622;BME280;10470;42.670;23.354;2022-11-24T09:56:35;94218.50;;;7.14;100.00
20622;BME280;10470;42.670;23.354;2022-11-24T09:59:30;94208.28;;;6.96;100.00
20622;BME280;10470;42.670;23.354;2022-11-24T10:01:54;94209.91;;;6.94;100.00
20622;BME280;10470;42.670;23.354;2022-11-24T10:04:34;94223.28;;;6.75;100.00
20622;BME280;10470;42.670;23.354;2022-11-24T10:10:03;94231.38;;;6.75;100.00
20622;BME280;10470;42.670;23.354;2022-11-24T10:12:45;94234.41;;;6.90;100.00
20622;BME280;10470;42.670;23.354;2022-11-24T10:17:54;94239.75;;;6.55;100.00
20622;BME280;10470;42.670;23.354;2022-11-24T10:25:52;94240.50;;;6.43;100.00
20622;BME280;10470;42.670;23.354;2022-11-24T10:28:20;94230.19;;;6.76;100.00
20622;BME280;10470;42.670;23.354;2022-11-24T10:30:46;94242.53;;;6.90;100.00
20622;BME280;10470;42.670;23.354;2022-11-24T10:33:20;94234.00;;;6.66;100.00
20622;BME280;10470;42.670;23.354;2022-11-24T10:35:54;94241.16;;;6.60;100.00
20622;BME280;10470;42.670;23.354;2022-11-24T10:40:58;94240.06;;;6.57;100.00
20622;BME280;10470;42.670;23.354;2022-11-24T10:43:27;94234.31;;;6.68;100.00
20622;BME280;10470;42.670;23.354;2022-11-24T10:46:14;94239.41;;;6.53;100.00
20622;BME280;10470;42.670;23.354;2022-11-24T10:48:52;94234.03;;;6.28;100.00
20622;BME280;10470;42.670;23.354;2022-11-24T10:54:14;94244.53;;;6.39;100.00
20622;BME280;10470;42.670;23.354;2022-11-24T10:56:42;94239.31;;;6.19;100.00
20622;BME280;10470;42.670;23.354;2022-11-24T11:01:45;94238.56;;;6.31;100.00
20622;BME280;10470;42.670;23.354;2022-11-24T11:04:19;94222.13;;;6.25;100.00
20622;BME280;10470;42.670;23.354;2022-11-24T11:06:45;94222.75;;;6.17;100.00
20622;BME280;10470;42.670;23.354;2022-11-24T11:09:21;94240.94;;;6.16;100.00
20622;BME280;10470;42.670;23.354;2022-11-24T11:11:47;94251.03;;;6.41;100.00
20622;BME280;10470;42.670;23.354;2022-11-24T11:14:33;94255.03;;;6.37;100.00
20622;BME280;10470;42.670;23.354;2022-11-24T11:17:02;94244.94;;;6.24;100.00
20622;BME280;10470;42.670;23.354;2022-11-24T11:19:49;94251.34;;;6.18;100.00
20622;BME280;10470;42.670;23.354;2022-11-24T11:22:24;94247.88;;;6.43;100.00
20622;BME280;10470;42.670;23.354;2022-11-24T11:27:35;94248.63;;;6.43;100.00
20622;BME280;10470;42.670;23.354;2022-11-24T11:30:25;94259.78;;;6.45;100.00
20622;BME280;10470;42.670;23.354;2022-11-24T11:32:57;94235.97;;;6.27;100.00
20622;BME280;10470;42.670;23.354;2022-11-24T11:35:27;94260.44;;;6.49;100.00
20622;BME280;10470;42.670;23.354;2022-11-24T11:38:00;94259.56;;;6.52;100.00
20622;BME280;10470;42.670;23.354;2022-11-24T11:40:29;94263.88;;;6.50;100.00
20622;BME280;10470;42.670;23.354;2022-11-24T11:43:03;94264.97;;;6.65;100.00
20622;BME280;10470;42.670;23.354;2022-11-24T11:45:34;94260.97;;;6.70;100.00
20622;BME280;10470;42.670;23.354;2022-11-24T11:58:36;94274.84;;;6.59;100.00
20622;BME280;10470;42.670;23.354;2022-11-24T12:04:11;94280.66;;;6.57;100.00
20622;BME280;10470;42.670;23.354;2022-11-24T12:23:30;94284.34;;;7.37;100.00
20622;BME280;10470;42.670;23.354;2022-11-24T12:26:06;94284.31;;;7.72;100.00
20622;BME280;10470;42.670;23.354;2022-11-24T12:31:48;94298.25;;;7.13;100.00
20622;BME280;10470;42.670;23.354;2022-11-24T12:39:56;94275.25;;;6.83;100.00
20622;BME280;10470;42.670;23.354;2022-11-24T12:45:13;94296.88;;;7.09;100.00
20622;BME280;10470;42.670;23.354;2022-11-24T12:50:17;94303.56;;;7.17;100.00
20622;BME280;10470;42.670;23.354;2022-11-24T12:52:49;94295.63;;;7.22;100.00
20622;BME280;10470;42.670;23.354;2022-11-24T12:55:20;94296.94;;;7.18;100.00
20622;BME280;10470;42.670;23.354;2022-11-24T13:00:56;94293.13;;;7.63;100.00
20622;BME280;10470;42.670;23.354;2022-11-24T13:03:46;94301.63;;;7.96;100.00
20622;BME280;10470;42.670;23.354;2022-11-24T13:06:20;94299.38;;;7.73;100.00
20622;BME280;10470;42.670;23.354;2022-11-24T13:08:48;94306.38;;;7.61;100.00
20622;BME280;10470;42.670;23.354;2022-11-24T13:14:05;94308.84;;;7.68;100.00
20622;BME280;10470;42.670;23.354;2022-11-24T13:16:31;94311.84;;;7.70;100.00
20622;BME280;10470;42.670;23.354;2022-11-24T13:19:12;94315.16;;;7.52;100.00
20622;BME280;10470;42.670;23.354;2022-11-24T13:29:35;94320.69;;;7.27;100.00
20622;BME280;10470;42.670;23.354;2022-11-24T13:40:00;94317.44;;;7.19;100.00
20622;BME280;10470;42.670;23.354;2022-11-24T13:42:28;94326.19;;;7.23;100.00
20622;BME280;10470;42.670;23.354;2022-11-24T13:45:00;94325.22;;;7.30;100.00
20622;BME280;10470;42.670;23.354;2022-11-24T13:47:34;94330.09;;;7.35;100.00
20622;BME280;10470;42.670;23.354;2022-11-24T13:50:03;94328.28;;;7.19;100.00
20622;BME280;10470;42.670;23.354;2022-11-24T13:55:20;94321.00;;;7.16;100.00
20622;BME280;10470;42.670;23.354;2022-11-24T13:57:52;94329.56;;;7.14;100.00
20622;BME280;10470;42.670;23.354;2022-11-24T14:02:57;94333.56;;;7.22;100.00
20622;BME280;10470;42.670;23.354;2022-11-24T14:05:31;94331.09;;;7.15;100.00
20622;BME280;10470;42.670;23.354;2022-11-24T14:07:58;94337.72;;;7.02;100.00
20622;BME280;10470;42.670;23.354;2022-11-24T14:10:30;94338.38;;;6.93;100.00
20622;BME280;10470;42.670;23.354;2022-11-24T14:13:26;94352.22;;;6.95;100.00
20622;BME280;10470;42.670;23.354;2022-11-24T14:18:28;94350.84;;;7.03;100.00
20622;BME280;10470;42.670;23.354;2022-11-24T14:20:56;94347.81;;;6.88;100.00
20622;BME280;10470;42.670;23.354;2022-11-24T14:23:22;94344.75;;;6.99;100.00
20622;BME280;10470;42.670;23.354;2022-11-24T14:25:49;94349.53;;;6.95;100.00
20622;BME280;10470;42.670;23.354;2022-11-24T14:28:24;94348.66;;;6.98;100.00
20622;BME280;10470;42.670;23.354;2022-11-24T14:30:51;94349.53;;;6.95;100.00
20622;BME280;10470;42.670;23.354;2022-11-24T14:33:30;94348.66;;;6.98;100.00
20622;BME280;10470;42.670;23.354;2022-11-24T14:35:55;94347.34;;;7.03;100.00
20622;BME280;10470;42.670;23.354;2022-11-24T14:38:20;94350.03;;;7.15;100.00
20622;BME280;10470;42.670;23.354;2022-11-24T14:40:51;94351.78;;;7.09;100.00
20622;BME280;10470;42.670;23.354;2022-11-24T14:43:18;94341.09;;;7.06;100.00
20622;BME280;10470;42.670;23.354;2022-11-24T14:48:15;94344.31;;;7.13;100.00
20622;BME280;10470;42.670;23.354;2022-11-24T14:50:42;94351.38;;;7.11;100.00